OIII/THR METAR and TAF weather

Enter ICAO airport designator
Station Type Date Time Source
OIII METAR 2019/02/18 04:00 UTC NOAA

OIII 180400Z 32004KT CAVOK 02/M05 Q1013 A2992 NOSIG


Station Type Date Time Source
OIII Decoded METAR 2019/02/18 04:00 UTC NOAA

Tehran-Mehrabad, Iran (OIII) 35-41N 051-21E 1191M
Feb 17, 2019 - 11:00 PM EST / 2019.02.18 0400 UTC
Wind: from the NW (320 degrees) at 5 MPH (4 KT):0
Visibility: greater than 7 mile(s):0
Temperature: 35 F (2 C)
Windchill: 30 F (-1 C):1
Dew Point: 23 F (-5 C)
Relative Humidity: 59%
Pressure (altimeter): 29.92 in. Hg (1013 hPa)
ob: OIII 180400Z 32004KT CAVOK 02/M05 Q1013 A2992 NOSIG
cycle: 4

Station Type Date Time Source
OIII TAF 2019/02/17 18:18 UTC NOAA

TAF OIII 171750Z 1718/1824 30008KT 8000 FEW035
TEMPO 1718/1724 24018KT
TEMPO 1809/1814 24014KT


Example: see airport list